メインページ
METAR-TAF:

METAR-TAF

空港 :

大島空港

新居大島, 日本

緯度: 34-47N, 経度: 139-22E, 海抜: 38m

現時点の気象観測

当レポートは24分前の03:10(UTC)に作成
西の風 5kt、から北/北西の間で変化する
気温 21°C
湿度 100%
気圧 1002 hPa
視程: 5000m
高度100ftの雲はほとんどない
高度300ftの千切れ雲あり
高度800ftの千切れ雲あり
弱いにわか雨, 靄

METAR: RJTO 200310Z 27005KT 190V340 5000 -SHRA BR FEW001 BKN003 BKN008 21/21 Q1002 RMK 1ST001 5ST003 6ST008 A2960

時間: 12:34 (03:34 UTC)


TAF: 見つかりません

4,000以上の空港の気象観測と天気予報(METAR報とTAF報)

利用可能な観測所は地図上に黄色い丸と赤い丸で示す。

丸の上にカーソルを重ねると観測所名を参照できる。

次にクリックすると気象観測と天気予報を参照できる。

マップの切り替え:黒色「×」印の緑ボタンをクリックして拡大、「-」印の緑ボタンをクリックして縮小、緑色の三角印をクリックして隣りの地図に切り替え


METAR-TAF: